sensor_id;sensor_type;location;lat;lon;timestamp;temperature;humidity
25568;DHT22;13455;51.480;7.594;2023-11-19T00:02:20;10.10;99.90
25568;DHT22;13455;51.480;7.594;2023-11-19T00:04:47;10.10;99.90
25568;DHT22;13455;51.480;7.594;2023-11-19T00:07:12;10.20;99.90
25568;DHT22;13455;51.480;7.594;2023-11-19T00:09:39;10.10;99.90
25568;DHT22;13455;51.480;7.594;2023-11-19T00:12:06;10.10;99.90
25568;DHT22;13455;51.480;7.594;2023-11-19T00:14:32;10.10;99.90
25568;DHT22;13455;51.480;7.594;2023-11-19T00:16:58;10.30;99.90
25568;DHT22;13455;51.480;7.594;2023-11-19T00:19:23;10.20;99.90
25568;DHT22;13455;51.480;7.594;2023-11-19T00:21:49;10.00;99.90
25568;DHT22;13455;51.480;7.594;2023-11-19T00:24:15;10.30;99.90
25568;DHT22;13455;51.480;7.594;2023-11-19T00:26:43;10.30;99.90
25568;DHT22;13455;51.480;7.594;2023-11-19T00:29:09;10.50;99.90
25568;DHT22;13455;51.480;7.594;2023-11-19T00:31:35;10.30;99.90
25568;DHT22;13455;51.480;7.594;2023-11-19T00:34:01;10.50;99.90
25568;DHT22;13455;51.480;7.594;2023-11-19T00:36:27;10.40;99.90
25568;DHT22;13455;51.480;7.594;2023-11-19T00:38:53;10.60;99.90
25568;DHT22;13455;51.480;7.594;2023-11-19T00:41:19;10.40;99.90
25568;DHT22;13455;51.480;7.594;2023-11-19T00:43:45;10.40;99.90
25568;DHT22;13455;51.480;7.594;2023-11-19T00:46:10;10.40;99.90
25568;DHT22;13455;51.480;7.594;2023-11-19T00:48:36;10.80;99.90
25568;DHT22;13455;51.480;7.594;2023-11-19T00:51:02;10.50;99.90
25568;DHT22;13455;51.480;7.594;2023-11-19T00:53:29;10.60;99.90
25568;DHT22;13455;51.480;7.594;2023-11-19T00:55:55;10.60;99.90
25568;DHT22;13455;51.480;7.594;2023-11-19T00:58:21;10.80;99.90
25568;DHT22;13455;51.480;7.594;2023-11-19T01:00:46;10.70;99.90
25568;DHT22;13455;51.480;7.594;2023-11-19T01:03:12;10.80;99.90
25568;DHT22;13455;51.480;7.594;2023-11-19T01:05:38;11.10;99.90
25568;DHT22;13455;51.480;7.594;2023-11-19T01:08:04;10.80;99.90
25568;DHT22;13455;51.480;7.594;2023-11-19T01:10:30;11.10;99.90
25568;DHT22;13455;51.480;7.594;2023-11-19T01:12:56;11.10;99.90
25568;DHT22;13455;51.480;7.594;2023-11-19T01:15:22;11.10;99.90
25568;DHT22;13455;51.480;7.594;2023-11-19T01:17:48;11.10;99.90
25568;DHT22;13455;51.480;7.594;2023-11-19T01:20:14;11.20;99.90
25568;DHT22;13455;51.480;7.594;2023-11-19T01:22:40;11.60;99.90
25568;DHT22;13455;51.480;7.594;2023-11-19T01:25:06;11.10;99.90
25568;DHT22;13455;51.480;7.594;2023-11-19T01:27:32;11.10;99.90
25568;DHT22;13455;51.480;7.594;2023-11-19T01:30:00;11.60;99.90
25568;DHT22;13455;51.480;7.594;2023-11-19T01:32:27;11.40;99.90
25568;DHT22;13455;51.480;7.594;2023-11-19T01:34:53;11.20;99.90
25568;DHT22;13455;51.480;7.594;2023-11-19T01:37:18;11.60;99.90
25568;DHT22;13455;51.480;7.594;2023-11-19T01:39:44;11.70;99.90
25568;DHT22;13455;51.480;7.594;2023-11-19T01:42:10;11.70;99.90
25568;DHT22;13455;51.480;7.594;2023-11-19T01:44:37;11.40;99.90
25568;DHT22;13455;51.480;7.594;2023-11-19T01:47:03;11.40;99.90
25568;DHT22;13455;51.480;7.594;2023-11-19T01:49:31;11.40;99.90
25568;DHT22;13455;51.480;7.594;2023-11-19T01:51:57;11.60;99.90
25568;DHT22;13455;51.480;7.594;2023-11-19T01:54:24;11.70;99.90
25568;DHT22;13455;51.480;7.594;2023-11-19T01:56:49;11.60;99.90
25568;DHT22;13455;51.480;7.594;2023-11-19T01:59:16;11.40;99.90
25568;DHT22;13455;51.480;7.594;2023-11-19T02:01:42;11.50;99.90
25568;DHT22;13455;51.480;7.594;2023-11-19T02:04:08;11.40;99.90
25568;DHT22;13455;51.480;7.594;2023-11-19T02:06:40;11.50;99.90
25568;DHT22;13455;51.480;7.594;2023-11-19T02:09:08;11.40;99.90
25568;DHT22;13455;51.480;7.594;2023-11-19T02:11:35;11.70;99.90
25568;DHT22;13455;51.480;7.594;2023-11-19T02:14:01;11.40;99.90
25568;DHT22;13455;51.480;7.594;2023-11-19T02:16:28;11.70;99.90
25568;DHT22;13455;51.480;7.594;2023-11-19T02:18:54;11.40;99.90
25568;DHT22;13455;51.480;7.594;2023-11-19T02:21:19;11.80;99.90
25568;DHT22;13455;51.480;7.594;2023-11-19T02:23:45;11.50;99.90
25568;DHT22;13455;51.480;7.594;2023-11-19T02:26:32;11.70;99.90
25568;DHT22;13455;51.480;7.594;2023-11-19T02:29:01;11.40;99.90
25568;DHT22;13455;51.480;7.594;2023-11-19T02:31:28;11.60;99.90
25568;DHT22;13455;51.480;7.594;2023-11-19T02:33:53;11.70;99.90
25568;DHT22;13455;51.480;7.594;2023-11-19T02:36:20;11.40;99.90
25568;DHT22;13455;51.480;7.594;2023-11-19T02:38:46;12.10;99.90
25568;DHT22;13455;51.480;7.594;2023-11-19T02:41:14;11.80;99.90
25568;DHT22;13455;51.480;7.594;2023-11-19T02:43:40;11.70;99.90
25568;DHT22;13455;51.480;7.594;2023-11-19T02:46:06;11.70;99.90
25568;DHT22;13455;51.480;7.594;2023-11-19T02:48:33;11.60;99.90
25568;DHT22;13455;51.480;7.594;2023-11-19T02:51:01;11.80;99.90
25568;DHT22;13455;51.480;7.594;2023-11-19T02:53:26;11.80;99.90
25568;DHT22;13455;51.480;7.594;2023-11-19T02:55:54;11.70;99.90
25568;DHT22;13455;51.480;7.594;2023-11-19T02:58:29;12.00;99.90
25568;DHT22;13455;51.480;7.594;2023-11-19T03:00:55;11.80;99.90
25568;DHT22;13455;51.480;7.594;2023-11-19T03:03:25;11.90;99.90
25568;DHT22;13455;51.480;7.594;2023-11-19T03:05:56;11.60;99.90
25568;DHT22;13455;51.480;7.594;2023-11-19T03:08:22;12.00;99.90
25568;DHT22;13455;51.480;7.594;2023-11-19T03:10:48;12.10;99.90
25568;DHT22;13455;51.480;7.594;2023-11-19T03:13:14;11.80;99.90
25568;DHT22;13455;51.480;7.594;2023-11-19T03:15:40;12.10;99.90
25568;DHT22;13455;51.480;7.594;2023-11-19T03:18:07;12.00;99.90
25568;DHT22;13455;51.480;7.594;2023-11-19T03:20:33;12.00;99.90
25568;DHT22;13455;51.480;7.594;2023-11-19T03:22:58;12.30;99.90
25568;DHT22;13455;51.480;7.594;2023-11-19T03:25:26;12.00;99.90
25568;DHT22;13455;51.480;7.594;2023-11-19T03:28:02;11.80;99.90
25568;DHT22;13455;51.480;7.594;2023-11-19T03:30:29;12.40;99.90
25568;DHT22;13455;51.480;7.594;2023-11-19T03:32:57;12.10;99.90
25568;DHT22;13455;51.480;7.594;2023-11-19T03:35:24;12.30;99.90
25568;DHT22;13455;51.480;7.594;2023-11-19T03:37:50;12.30;99.90
25568;DHT22;13455;51.480;7.594;2023-11-19T03:40:17;12.00;99.90
25568;DHT22;13455;51.480;7.594;2023-11-19T03:42:42;12.30;99.90
25568;DHT22;13455;51.480;7.594;2023-11-19T03:45:09;12.60;99.90
25568;DHT22;13455;51.480;7.594;2023-11-19T03:47:35;12.20;99.90
25568;DHT22;13455;51.480;7.594;2023-11-19T03:50:01;12.20;99.90
25568;DHT22;13455;51.480;7.594;2023-11-19T03:52:27;12.40;99.90
25568;DHT22;13455;51.480;7.594;2023-11-19T03:54:53;12.20;99.90
25568;DHT22;13455;51.480;7.594;2023-11-19T03:57:20;12.40;99.90
25568;DHT22;13455;51.480;7.594;2023-11-19T03:59:46;12.40;99.90
25568;DHT22;13455;51.480;7.594;2023-11-19T04:02:12;12.60;99.90
25568;DHT22;13455;51.480;7.594;2023-11-19T04:04:37;12.30;99.90
25568;DHT22;13455;51.480;7.594;2023-11-19T04:07:04;12.30;99.90
25568;DHT22;13455;51.480;7.594;2023-11-19T04:09:30;12.70;99.90
25568;DHT22;13455;51.480;7.594;2023-11-19T04:11:57;12.30;99.90
25568;DHT22;13455;51.480;7.594;2023-11-19T04:14:22;12.30;99.90
25568;DHT22;13455;51.480;7.594;2023-11-19T04:16:48;12.20;99.90
25568;DHT22;13455;51.480;7.594;2023-11-19T04:19:14;12.30;99.90
25568;DHT22;13455;51.480;7.594;2023-11-19T04:21:40;12.20;99.90
25568;DHT22;13455;51.480;7.594;2023-11-19T04:24:07;12.30;99.90
25568;DHT22;13455;51.480;7.594;2023-11-19T04:26:33;12.10;99.90
25568;DHT22;13455;51.480;7.594;2023-11-19T04:28:59;12.20;99.90
25568;DHT22;13455;51.480;7.594;2023-11-19T04:31:29;12.30;99.90
25568;DHT22;13455;51.480;7.594;2023-11-19T04:33:57;13.00;99.90
25568;DHT22;13455;51.480;7.594;2023-11-19T04:36:22;12.00;99.90
25568;DHT22;13455;51.480;7.594;2023-11-19T04:38:50;12.20;99.90
25568;DHT22;13455;51.480;7.594;2023-11-19T04:41:16;12.10;99.90
25568;DHT22;13455;51.480;7.594;2023-11-19T04:43:41;12.10;99.90
25568;DHT22;13455;51.480;7.594;2023-11-19T04:46:09;12.00;99.90
25568;DHT22;13455;51.480;7.594;2023-11-19T04:48:34;12.10;99.90
25568;DHT22;13455;51.480;7.594;2023-11-19T04:51:00;11.90;99.90
25568;DHT22;13455;51.480;7.594;2023-11-19T04:53:26;12.20;99.90
25568;DHT22;13455;51.480;7.594;2023-11-19T04:55:51;12.00;99.90
25568;DHT22;13455;51.480;7.594;2023-11-19T04:58:17;12.00;99.90
25568;DHT22;13455;51.480;7.594;2023-11-19T05:00:43;12.00;99.90
25568;DHT22;13455;51.480;7.594;2023-11-19T05:03:08;11.90;99.90
25568;DHT22;13455;51.480;7.594;2023-11-19T05:05:34;11.90;99.90
25568;DHT22;13455;51.480;7.594;2023-11-19T05:07:59;11.90;99.90
25568;DHT22;13455;51.480;7.594;2023-11-19T05:10:25;11.90;99.90
25568;DHT22;13455;51.480;7.594;2023-11-19T05:49:38;11.90;99.90
25568;DHT22;13455;51.480;7.594;2023-11-19T05:52:04;12.00;99.90
25568;DHT22;13455;51.480;7.594;2023-11-19T05:54:33;11.90;99.90
25568;DHT22;13455;51.480;7.594;2023-11-19T05:57:06;11.90;99.90
25568;DHT22;13455;51.480;7.594;2023-11-19T05:59:35;11.90;99.90
25568;DHT22;13455;51.480;7.594;2023-11-19T06:02:01;11.90;99.90
25568;DHT22;13455;51.480;7.594;2023-11-19T06:04:27;11.80;99.90
25568;DHT22;13455;51.480;7.594;2023-11-19T06:06:53;11.90;99.90
25568;DHT22;13455;51.480;7.594;2023-11-19T06:09:20;11.90;99.90
25568;DHT22;13455;51.480;7.594;2023-11-19T06:11:46;11.90;99.90
25568;DHT22;13455;51.480;7.594;2023-11-19T06:14:12;11.70;99.90
25568;DHT22;13455;51.480;7.594;2023-11-19T06:16:38;11.90;99.90
25568;DHT22;13455;51.480;7.594;2023-11-19T06:19:05;11.90;99.90
25568;DHT22;13455;51.480;7.594;2023-11-19T06:21:30;11.90;99.90
25568;DHT22;13455;51.480;7.594;2023-11-19T06:23:56;12.00;99.90
25568;DHT22;13455;51.480;7.594;2023-11-19T06:26:22;12.10;99.90
25568;DHT22;13455;51.480;7.594;2023-11-19T06:28:48;12.00;99.90
25568;DHT22;13455;51.480;7.594;2023-11-19T06:31:13;11.90;99.90
25568;DHT22;13455;51.480;7.594;2023-11-19T06:33:41;11.90;99.90
25568;DHT22;13455;51.480;7.594;2023-11-19T06:36:07;11.90;99.90
25568;DHT22;13455;51.480;7.594;2023-11-19T06:38:35;12.00;99.90
25568;DHT22;13455;51.480;7.594;2023-11-19T06:41:00;12.20;99.90
25568;DHT22;13455;51.480;7.594;2023-11-19T06:43:26;11.90;99.90
25568;DHT22;13455;51.480;7.594;2023-11-19T06:45:53;12.00;99.90
25568;DHT22;13455;51.480;7.594;2023-11-19T06:50:44;11.80;99.90
25568;DHT22;13455;51.480;7.594;2023-11-19T06:53:10;11.90;99.90
25568;DHT22;13455;51.480;7.594;2023-11-19T06:55:36;11.80;99.90
25568;DHT22;13455;51.480;7.594;2023-11-19T06:58:01;11.90;99.90
25568;DHT22;13455;51.480;7.594;2023-11-19T07:00:28;11.90;99.90
25568;DHT22;13455;51.480;7.594;2023-11-19T07:02:55;11.80;99.90
25568;DHT22;13455;51.480;7.594;2023-11-19T07:05:20;11.70;99.90
25568;DHT22;13455;51.480;7.594;2023-11-19T07:07:46;11.80;99.90
25568;DHT22;13455;51.480;7.594;2023-11-19T07:10:12;11.80;99.90
25568;DHT22;13455;51.480;7.594;2023-11-19T07:12:38;11.80;99.90
25568;DHT22;13455;51.480;7.594;2023-11-19T07:17:31;11.70;99.90
25568;DHT22;13455;51.480;7.594;2023-11-19T07:19:56;11.70;99.90
25568;DHT22;13455;51.480;7.594;2023-11-19T07:22:25;11.90;99.90
25568;DHT22;13455;51.480;7.594;2023-11-19T07:24:50;11.80;99.90
25568;DHT22;13455;51.480;7.594;2023-11-19T07:27:16;11.70;99.90
25568;DHT22;13455;51.480;7.594;2023-11-19T07:29:43;11.80;99.90
25568;DHT22;13455;51.480;7.594;2023-11-19T07:32:10;11.80;99.90
25568;DHT22;13455;51.480;7.594;2023-11-19T07:34:35;11.70;99.90
25568;DHT22;13455;51.480;7.594;2023-11-19T07:37:01;11.80;99.90
25568;DHT22;13455;51.480;7.594;2023-11-19T07:39:28;11.80;99.90
25568;DHT22;13455;51.480;7.594;2023-11-19T07:41:54;11.80;99.90
25568;DHT22;13455;51.480;7.594;2023-11-19T07:44:20;11.80;99.90
25568;DHT22;13455;51.480;7.594;2023-11-19T07:46:46;11.80;99.90
25568;DHT22;13455;51.480;7.594;2023-11-19T07:49:13;11.80;99.90
25568;DHT22;13455;51.480;7.594;2023-11-19T07:51:39;11.80;99.90
25568;DHT22;13455;51.480;7.594;2023-11-19T07:54:05;11.80;99.90
25568;DHT22;13455;51.480;7.594;2023-11-19T07:56:34;11.80;99.90
25568;DHT22;13455;51.480;7.594;2023-11-19T07:59:03;11.70;99.90
25568;DHT22;13455;51.480;7.594;2023-11-19T08:01:28;11.70;99.90
25568;DHT22;13455;51.480;7.594;2023-11-19T08:03:54;11.80;99.90
25568;DHT22;13455;51.480;7.594;2023-11-19T08:06:20;11.80;99.90
25568;DHT22;13455;51.480;7.594;2023-11-19T08:08:45;11.80;99.90
25568;DHT22;13455;51.480;7.594;2023-11-19T08:11:13;11.80;99.90
25568;DHT22;13455;51.480;7.594;2023-11-19T08:13:39;11.70;99.90
25568;DHT22;13455;51.480;7.594;2023-11-19T08:16:05;11.80;99.90
25568;DHT22;13455;51.480;7.594;2023-11-19T08:18:31;11.70;99.90
25568;DHT22;13455;51.480;7.594;2023-11-19T08:20:56;11.70;99.90
25568;DHT22;13455;51.480;7.594;2023-11-19T08:23:23;11.80;99.90
25568;DHT22;13455;51.480;7.594;2023-11-19T08:25:51;11.80;99.90
25568;DHT22;13455;51.480;7.594;2023-11-19T08:28:16;11.70;99.90
25568;DHT22;13455;51.480;7.594;2023-11-19T08:30:42;11.70;99.90
25568;DHT22;13455;51.480;7.594;2023-11-19T08:33:09;11.80;99.90
25568;DHT22;13455;51.480;7.594;2023-11-19T08:35:35;11.70;99.90
25568;DHT22;13455;51.480;7.594;2023-11-19T08:38:00;11.80;99.90
25568;DHT22;13455;51.480;7.594;2023-11-19T08:40:27;11.80;99.90
25568;DHT22;13455;51.480;7.594;2023-11-19T08:42:53;12.20;99.90
25568;DHT22;13455;51.480;7.594;2023-11-19T08:45:19;11.90;99.90
25568;DHT22;13455;51.480;7.594;2023-11-19T08:47:44;11.90;99.90
25568;DHT22;13455;51.480;7.594;2023-11-19T08:50:10;11.90;99.90
25568;DHT22;13455;51.480;7.594;2023-11-19T08:52:36;11.90;99.90
25568;DHT22;13455;51.480;7.594;2023-11-19T08:55:02;11.80;99.90
25568;DHT22;13455;51.480;7.594;2023-11-19T08:57:28;11.90;99.90
25568;DHT22;13455;51.480;7.594;2023-11-19T08:59:54;11.90;99.90
25568;DHT22;13455;51.480;7.594;2023-11-19T09:02:19;12.00;99.90
25568;DHT22;13455;51.480;7.594;2023-11-19T09:04:45;12.00;99.90
25568;DHT22;13455;51.480;7.594;2023-11-19T09:07:11;12.10;99.90
25568;DHT22;13455;51.480;7.594;2023-11-19T09:09:36;12.10;99.90
25568;DHT22;13455;51.480;7.594;2023-11-19T09:12:03;12.20;99.90
25568;DHT22;13455;51.480;7.594;2023-11-19T09:14:29;12.20;99.90
25568;DHT22;13455;51.480;7.594;2023-11-19T09:16:56;12.20;99.90
25568;DHT22;13455;51.480;7.594;2023-11-19T09:19:21;12.20;99.90
25568;DHT22;13455;51.480;7.594;2023-11-19T09:21:47;12.20;99.90
25568;DHT22;13455;51.480;7.594;2023-11-19T09:24:13;12.20;99.90
25568;DHT22;13455;51.480;7.594;2023-11-19T09:26:39;12.30;99.90
25568;DHT22;13455;51.480;7.594;2023-11-19T09:29:07;12.20;99.90
25568;DHT22;13455;51.480;7.594;2023-11-19T09:31:33;12.30;99.90
25568;DHT22;13455;51.480;7.594;2023-11-19T09:33:58;12.30;99.90
25568;DHT22;13455;51.480;7.594;2023-11-19T09:36:24;12.50;99.90
25568;DHT22;13455;51.480;7.594;2023-11-19T09:38:50;12.30;99.90
25568;DHT22;13455;51.480;7.594;2023-11-19T09:41:15;12.50;99.90
25568;DHT22;13455;51.480;7.594;2023-11-19T09:43:42;12.70;99.90
25568;DHT22;13455;51.480;7.594;2023-11-19T09:46:13;12.80;99.90
25568;DHT22;13455;51.480;7.594;2023-11-19T09:48:39;12.40;99.90
25568;DHT22;13455;51.480;7.594;2023-11-19T09:51:09;12.70;99.90
25568;DHT22;13455;51.480;7.594;2023-11-19T09:53:35;12.40;99.90
25568;DHT22;13455;51.480;7.594;2023-11-19T09:56:07;12.40;99.90
25568;DHT22;13455;51.480;7.594;2023-11-19T09:58:35;12.50;99.90
25568;DHT22;13455;51.480;7.594;2023-11-19T10:01:02;12.50;99.90
25568;DHT22;13455;51.480;7.594;2023-11-19T10:03:33;12.50;99.90
25568;DHT22;13455;51.480;7.594;2023-11-19T10:06:01;12.60;99.90
25568;DHT22;13455;51.480;7.594;2023-11-19T10:08:27;12.60;99.90
25568;DHT22;13455;51.480;7.594;2023-11-19T10:10:53;12.70;99.90
25568;DHT22;13455;51.480;7.594;2023-11-19T10:13:19;12.70;99.90
25568;DHT22;13455;51.480;7.594;2023-11-19T10:15:44;12.80;99.90
25568;DHT22;13455;51.480;7.594;2023-11-19T10:18:10;12.80;99.90
25568;DHT22;13455;51.480;7.594;2023-11-19T10:20:36;12.80;99.90
25568;DHT22;13455;51.480;7.594;2023-11-19T10:23:03;12.80;99.90
25568;DHT22;13455;51.480;7.594;2023-11-19T10:25:29;13.00;99.90
25568;DHT22;13455;51.480;7.594;2023-11-19T10:27:56;13.00;99.90
25568;DHT22;13455;51.480;7.594;2023-11-19T10:30:29;13.20;99.90
25568;DHT22;13455;51.480;7.594;2023-11-19T10:33:06;13.20;99.90
25568;DHT22;13455;51.480;7.594;2023-11-19T10:35:33;13.40;99.90
25568;DHT22;13455;51.480;7.594;2023-11-19T10:38:00;13.40;99.90
25568;DHT22;13455;51.480;7.594;2023-11-19T10:40:37;13.40;99.90
25568;DHT22;13455;51.480;7.594;2023-11-19T10:43:05;13.90;99.90
25568;DHT22;13455;51.480;7.594;2023-11-19T10:45:31;13.60;99.90
25568;DHT22;13455;51.480;7.594;2023-11-19T10:47:59;13.50;99.90
25568;DHT22;13455;51.480;7.594;2023-11-19T10:50:25;13.80;99.90
25568;DHT22;13455;51.480;7.594;2023-11-19T10:52:55;13.70;99.90
25568;DHT22;13455;51.480;7.594;2023-11-19T10:55:29;13.40;99.90
25568;DHT22;13455;51.480;7.594;2023-11-19T10:58:00;12.70;99.90
25568;DHT22;13455;51.480;7.594;2023-11-19T11:00:28;13.70;99.90
25568;DHT22;13455;51.480;7.594;2023-11-19T11:02:59;13.00;99.90
25568;DHT22;13455;51.480;7.594;2023-11-19T11:05:26;13.40;99.90
25568;DHT22;13455;51.480;7.594;2023-11-19T11:07:55;13.30;99.90
25568;DHT22;13455;51.480;7.594;2023-11-19T11:10:24;13.10;99.90
25568;DHT22;13455;51.480;7.594;2023-11-19T11:12:54;13.10;99.90
25568;DHT22;13455;51.480;7.594;2023-11-19T11:15:27;13.20;99.90
25568;DHT22;13455;51.480;7.594;2023-11-19T11:18:00;13.40;99.90
25568;DHT22;13455;51.480;7.594;2023-11-19T11:20:31;13.10;99.90
25568;DHT22;13455;51.480;7.594;2023-11-19T11:31:12;13.10;99.90
25568;DHT22;13455;51.480;7.594;2023-11-19T11:36:24;13.10;99.90
25568;DHT22;13455;51.480;7.594;2023-11-19T11:38:51;13.30;99.90
25568;DHT22;13455;51.480;7.594;2023-11-19T11:41:26;13.20;99.90
25568;DHT22;13455;51.480;7.594;2023-11-19T11:43:52;13.40;99.90
25568;DHT22;13455;51.480;7.594;2023-11-19T11:49:02;13.20;99.90
25568;DHT22;13455;51.480;7.594;2023-11-19T11:57:07;13.30;99.90
25568;DHT22;13455;51.480;7.594;2023-11-19T12:02:08;13.50;99.90
25568;DHT22;13455;51.480;7.594;2023-11-19T12:04:35;13.10;99.90
25568;DHT22;13455;51.480;7.594;2023-11-19T12:07:12;13.70;99.90
25568;DHT22;13455;51.480;7.594;2023-11-19T12:09:41;13.70;99.90
25568;DHT22;13455;51.480;7.594;2023-11-19T12:12:27;14.00;99.90
25568;DHT22;13455;51.480;7.594;2023-11-19T12:20:22;15.40;99.90
25568;DHT22;13455;51.480;7.594;2023-11-19T12:22:49;15.30;99.90
25568;DHT22;13455;51.480;7.594;2023-11-19T12:25:16;15.00;99.90
25568;DHT22;13455;51.480;7.594;2023-11-19T12:27:45;14.90;99.90
25568;DHT22;13455;51.480;7.594;2023-11-19T12:30:11;15.10;99.90
25568;DHT22;13455;51.480;7.594;2023-11-19T12:32:41;14.70;99.90
25568;DHT22;13455;51.480;7.594;2023-11-19T12:35:08;14.60;99.90
25568;DHT22;13455;51.480;7.594;2023-11-19T12:37:44;14.60;99.90
25568;DHT22;13455;51.480;7.594;2023-11-19T12:40:18;14.90;99.90
25568;DHT22;13455;51.480;7.594;2023-11-19T12:42:45;15.40;99.90
25568;DHT22;13455;51.480;7.594;2023-11-19T12:45:10;15.20;99.90
25568;DHT22;13455;51.480;7.594;2023-11-19T12:47:37;15.20;99.90
25568;DHT22;13455;51.480;7.594;2023-11-19T12:50:03;14.90;99.90
25568;DHT22;13455;51.480;7.594;2023-11-19T12:52:30;14.80;99.90
25568;DHT22;13455;51.480;7.594;2023-11-19T12:54:55;14.80;99.90
25568;DHT22;13455;51.480;7.594;2023-11-19T12:57:41;14.80;99.90
25568;DHT22;13455;51.480;7.594;2023-11-19T13:00:17;14.50;99.90
25568;DHT22;13455;51.480;7.594;2023-11-19T13:02:56;14.40;99.90
25568;DHT22;13455;51.480;7.594;2023-11-19T13:05:31;14.40;99.90
25568;DHT22;13455;51.480;7.594;2023-11-19T13:08:02;14.30;99.90
25568;DHT22;13455;51.480;7.594;2023-11-19T13:10:29;14.20;99.90
25568;DHT22;13455;51.480;7.594;2023-11-19T13:13:06;14.10;99.90
25568;DHT22;13455;51.480;7.594;2023-11-19T13:15:32;14.10;99.90
25568;DHT22;13455;51.480;7.594;2023-11-19T13:17:58;14.10;99.90
25568;DHT22;13455;51.480;7.594;2023-11-19T13:20:24;14.20;99.90
25568;DHT22;13455;51.480;7.594;2023-11-19T13:23:05;13.90;99.90
25568;DHT22;13455;51.480;7.594;2023-11-19T13:25:32;14.00;99.90
25568;DHT22;13455;51.480;7.594;2023-11-19T13:27:58;13.90;99.90
25568;DHT22;13455;51.480;7.594;2023-11-19T13:30:24;13.90;99.90
25568;DHT22;13455;51.480;7.594;2023-11-19T13:32:51;13.80;99.90
25568;DHT22;13455;51.480;7.594;2023-11-19T13:35:18;13.70;99.90
25568;DHT22;13455;51.480;7.594;2023-11-19T13:37:44;13.60;99.90
25568;DHT22;13455;51.480;7.594;2023-11-19T13:40:11;13.60;99.90
25568;DHT22;13455;51.480;7.594;2023-11-19T13:42:40;13.50;99.90
25568;DHT22;13455;51.480;7.594;2023-11-19T13:45:15;13.50;99.90
25568;DHT22;13455;51.480;7.594;2023-11-19T13:47:42;13.60;99.90
25568;DHT22;13455;51.480;7.594;2023-11-19T13:50:10;13.40;99.90
25568;DHT22;13455;51.480;7.594;2023-11-19T13:52:37;13.20;99.90
25568;DHT22;13455;51.480;7.594;2023-11-19T13:55:07;13.40;99.90
25568;DHT22;13455;51.480;7.594;2023-11-19T13:57:34;13.30;99.90
25568;DHT22;13455;51.480;7.594;2023-11-19T14:00:00;13.30;99.90
25568;DHT22;13455;51.480;7.594;2023-11-19T14:02:27;13.20;99.90
25568;DHT22;13455;51.480;7.594;2023-11-19T14:04:53;13.20;99.90
25568;DHT22;13455;51.480;7.594;2023-11-19T14:07:19;13.20;99.90
25568;DHT22;13455;51.480;7.594;2023-11-19T14:09:44;13.20;99.90
25568;DHT22;13455;51.480;7.594;2023-11-19T14:12:11;13.30;99.90
25568;DHT22;13455;51.480;7.594;2023-11-19T14:14:38;13.20;99.90
25568;DHT22;13455;51.480;7.594;2023-11-19T14:17:05;13.20;99.90
25568;DHT22;13455;51.480;7.594;2023-11-19T14:19:30;13.10;99.90
25568;DHT22;13455;51.480;7.594;2023-11-19T14:21:56;13.60;99.90
25568;DHT22;13455;51.480;7.594;2023-11-19T14:24:21;13.10;99.90
25568;DHT22;13455;51.480;7.594;2023-11-19T14:26:47;13.10;99.90
25568;DHT22;13455;51.480;7.594;2023-11-19T14:29:14;13.10;99.90
25568;DHT22;13455;51.480;7.594;2023-11-19T14:31:40;13.00;99.90
25568;DHT22;13455;51.480;7.594;2023-11-19T14:34:06;13.00;99.90
25568;DHT22;13455;51.480;7.594;2023-11-19T14:36:32;13.00;99.90
25568;DHT22;13455;51.480;7.594;2023-11-19T14:38:58;12.90;99.90
25568;DHT22;13455;51.480;7.594;2023-11-19T14:41:24;12.80;99.90
25568;DHT22;13455;51.480;7.594;2023-11-19T14:43:50;12.80;99.90
25568;DHT22;13455;51.480;7.594;2023-11-19T14:46:15;12.80;99.90
25568;DHT22;13455;51.480;7.594;2023-11-19T14:48:41;12.70;99.90
25568;DHT22;13455;51.480;7.594;2023-11-19T14:51:07;12.70;99.90
25568;DHT22;13455;51.480;7.594;2023-11-19T14:53:32;12.70;99.90
25568;DHT22;13455;51.480;7.594;2023-11-19T14:55:58;12.60;99.90
25568;DHT22;13455;51.480;7.594;2023-11-19T14:58:24;12.70;99.90
25568;DHT22;13455;51.480;7.594;2023-11-19T15:00:51;12.60;99.90
25568;DHT22;13455;51.480;7.594;2023-11-19T15:03:17;12.40;99.90
25568;DHT22;13455;51.480;7.594;2023-11-19T15:05:45;12.40;99.90
25568;DHT22;13455;51.480;7.594;2023-11-19T15:08:11;12.50;99.90
25568;DHT22;13455;51.480;7.594;2023-11-19T15:10:37;12.50;99.90
25568;DHT22;13455;51.480;7.594;2023-11-19T15:13:03;12.40;99.90
25568;DHT22;13455;51.480;7.594;2023-11-19T15:15:29;12.40;99.90
25568;DHT22;13455;51.480;7.594;2023-11-19T15:20:21;12.30;99.90
25568;DHT22;13455;51.480;7.594;2023-11-19T15:22:46;12.30;99.90
25568;DHT22;13455;51.480;7.594;2023-11-19T15:30:05;12.10;99.90
25568;DHT22;13455;51.480;7.594;2023-11-19T15:32:31;12.10;99.90
25568;DHT22;13455;51.480;7.594;2023-11-19T15:35:02;12.10;99.90
25568;DHT22;13455;51.480;7.594;2023-11-19T15:37:28;12.00;99.90
25568;DHT22;13455;51.480;7.594;2023-11-19T15:39:54;11.90;99.90
25568;DHT22;13455;51.480;7.594;2023-11-19T15:42:20;12.70;99.90
25568;DHT22;13455;51.480;7.594;2023-11-19T15:47:11;11.80;99.90
25568;DHT22;13455;51.480;7.594;2023-11-19T15:49:38;12.00;99.90
25568;DHT22;13455;51.480;7.594;2023-11-19T15:52:04;11.80;99.90
25568;DHT22;13455;51.480;7.594;2023-11-19T15:54:30;11.70;99.90
25568;DHT22;13455;51.480;7.594;2023-11-19T15:56:56;11.70;99.90
25568;DHT22;13455;51.480;7.594;2023-11-19T15:59:21;11.70;99.90
25568;DHT22;13455;51.480;7.594;2023-11-19T16:01:47;11.50;99.90
25568;DHT22;13455;51.480;7.594;2023-11-19T16:04:13;11.70;99.90
25568;DHT22;13455;51.480;7.594;2023-11-19T16:06:38;11.60;99.90
25568;DHT22;13455;51.480;7.594;2023-11-19T16:09:04;11.70;99.90
25568;DHT22;13455;51.480;7.594;2023-11-19T16:11:30;11.60;99.90
25568;DHT22;13455;51.480;7.594;2023-11-19T16:13:56;11.60;99.90
25568;DHT22;13455;51.480;7.594;2023-11-19T16:16:22;11.50;99.90
25568;DHT22;13455;51.480;7.594;2023-11-19T16:18:47;11.50;99.90
25568;DHT22;13455;51.480;7.594;2023-11-19T16:21:13;11.50;99.90
25568;DHT22;13455;51.480;7.594;2023-11-19T16:23:38;11.50;99.90
25568;DHT22;13455;51.480;7.594;2023-11-19T16:26:04;11.50;99.90
25568;DHT22;13455;51.480;7.594;2023-11-19T16:28:30;11.40;99.90
25568;DHT22;13455;51.480;7.594;2023-11-19T16:30:56;11.60;99.90
25568;DHT22;13455;51.480;7.594;2023-11-19T16:33:21;11.30;99.90
25568;DHT22;13455;51.480;7.594;2023-11-19T16:35:47;11.50;99.90
25568;DHT22;13455;51.480;7.594;2023-11-19T16:38:13;11.40;99.90
25568;DHT22;13455;51.480;7.594;2023-11-19T16:40:38;11.40;99.90
25568;DHT22;13455;51.480;7.594;2023-11-19T16:43:08;11.50;99.90
25568;DHT22;13455;51.480;7.594;2023-11-19T16:45:33;11.50;99.90
25568;DHT22;13455;51.480;7.594;2023-11-19T16:47:59;11.50;99.90